Time;durP1;ratioP1;P1;durP2;ratioP2;P2;SDS_P1;SDS_P2;PMS_P1;PMS_P2;Temp;Humidity;BMP_temperature;BMP_pressure;BME280_temperature;BME280_humidity;BME280_pressure;Samples;Min_cycle;Max_cycle;Signal;HPM_P1;HPM_P2
2021/03/14 00:01:40;;;;;;;0.50;0.50;;;3.60;99.90;;;;;;6088268;23;20179;-81
2021/03/14 00:04:06;;;;;;;0.40;0.40;;;3.60;99.90;;;;;;6088696;23;20662;-83
2021/03/14 00:06:32;;;;;;;0.50;0.50;;;3.30;99.90;;;;;;6088650;23;20194;-84
2021/03/14 00:08:58;;;;;;;0.50;0.50;;;3.50;99.90;;;;;;6086553;23;20183;-85
2021/03/14 00:11:25;;;;;;;0.50;0.50;;;3.50;99.90;;;;;;6086267;23;20604;-84
2021/03/14 00:13:51;;;;;;;0.50;0.50;;;3.50;99.90;;;;;;6077692;23;20187;-81
2021/03/14 00:16:17;;;;;;;0.50;0.50;;;3.60;99.90;;;;;;6087855;23;20187;-83
2021/03/14 00:18:46;;;;;;;0.50;0.50;;;3.60;99.90;;;;;;6087623;23;20234;-84
2021/03/14 00:21:14;;;;;;;0.50;0.50;;;3.60;99.90;;;;;;6088570;23;20194;-84
2021/03/14 00:23:41;;;;;;;0.50;0.50;;;3.60;99.90;;;;;;6087576;23;20179;-85
2021/03/14 00:26:07;;;;;;;0.50;0.50;;;3.90;99.90;;;;;;6087757;23;20190;-84
2021/03/14 00:28:34;;;;;;;0.50;0.50;;;3.40;99.90;;;;;;6087979;23;20175;-83
2021/03/14 00:31:00;;;;;;;0.50;0.50;;;3.60;99.90;;;;;;6085233;23;20644;-84
2021/03/14 00:33:26;;;;;;;0.50;0.50;;;3.60;99.90;;;;;;6082447;23;20659;-83
2021/03/14 00:35:53;;;;;;;0.50;0.50;;;3.60;99.90;;;;;;6084967;23;20815;-84
2021/03/14 00:38:20;;;;;;;0.50;0.50;;;3.70;99.90;;;;;;6085658;23;20440;-83
2021/03/14 00:40:47;;;;;;;0.50;0.50;;;3.30;99.90;;;;;;6086238;23;20520;-84
2021/03/14 00:43:14;;;;;;;0.50;0.50;;;3.80;99.90;;;;;;6085168;23;20179;-84
2021/03/14 00:45:43;;;;;;;0.50;0.50;;;3.70;99.90;;;;;;6087330;23;20192;-84
2021/03/14 00:48:09;;;;;;;0.50;0.50;;;4.70;99.90;;;;;;6085749;23;20845;-84
2021/03/14 00:50:37;;;;;;;0.50;0.50;;;3.40;99.90;;;;;;6086586;23;20806;-84
2021/03/14 00:53:05;;;;;;;0.50;0.50;;;3.70;99.90;;;;;;6085289;23;20249;-85
2021/03/14 00:55:31;;;;;;;0.50;0.50;;;3.60;99.90;;;;;;6087389;23;20183;-85
2021/03/14 00:57:58;;;;;;;0.50;0.50;;;3.70;99.90;;;;;;6087172;23;20210;-86
2021/03/14 01:00:24;;;;;;;0.50;0.50;;;3.60;99.90;;;;;;6087738;23;20635;-85
2021/03/14 01:02:51;;;;;;;0.50;0.50;;;3.30;99.90;;;;;;6086989;23;20183;-85
2021/03/14 01:05:17;;;;;;;0.50;0.50;;;3.60;99.90;;;;;;6087503;23;20183;-85
2021/03/14 01:07:44;;;;;;;0.50;0.50;;;3.50;99.90;;;;;;6086624;23;20179;-85
2021/03/14 01:10:12;;;;;;;0.50;0.50;;;3.50;99.90;;;;;;6087608;23;20187;-85
2021/03/14 01:12:39;;;;;;;0.50;0.50;;;3.40;99.90;;;;;;6087134;23;20184;-85
2021/03/14 01:15:08;;;;;;;0.50;0.50;;;3.30;99.90;;;;;;6087070;23;20193;-85
2021/03/14 01:17:35;;;;;;;0.50;0.50;;;3.30;99.90;;;;;;6084994;23;20199;-85
2021/03/14 01:20:01;;;;;;;0.50;0.50;;;3.30;99.90;;;;;;6085857;23;20557;-85
2021/03/14 01:22:27;;;;;;;0.50;0.50;;;3.20;99.90;;;;;;6085418;23;20237;-85
2021/03/14 01:24:53;;;;;;;0.50;0.50;;;3.10;99.90;;;;;;6085731;23;20183;-85
2021/03/14 01:27:23;;;;;;;0.50;0.50;;;3.00;99.90;;;;;;6086049;23;20266;-85
2021/03/14 01:29:49;;;;;;;0.50;0.50;;;2.90;99.90;;;;;;6084150;23;20866;-86
2021/03/14 01:32:15;;;;;;;0.50;0.50;;;2.80;99.90;;;;;;6087135;23;20187;-86
2021/03/14 01:34:42;;;;;;;0.50;0.50;;;2.70;99.90;;;;;;6086982;23;20190;-84
2021/03/14 01:37:08;;;;;;;0.50;0.50;;;2.50;99.90;;;;;;6086081;23;20179;-85
2021/03/14 01:39:34;;;;;;;0.50;0.50;;;2.40;99.90;;;;;;6087591;23;20242;-85
2021/03/14 01:42:01;;;;;;;0.50;0.50;;;2.30;99.90;;;;;;6086233;23;20211;-85
2021/03/14 01:44:28;;;;;;;0.50;0.50;;;2.30;99.90;;;;;;6087355;23;20190;-84
2021/03/14 01:46:54;;;;;;;0.50;0.50;;;2.20;99.90;;;;;;6087030;23;20491;-85
2021/03/14 01:49:20;;;;;;;0.50;0.50;;;2.20;99.90;;;;;;6086993;23;20209;-84
2021/03/14 01:51:46;;;;;;;0.50;0.50;;;2.10;99.90;;;;;;6085724;23;20203;-84
2021/03/14 01:54:13;;;;;;;0.50;0.50;;;2.10;99.90;;;;;;6086950;23;20202;-84
2021/03/14 01:56:39;;;;;;;0.50;0.50;;;2.20;99.90;;;;;;6085942;23;20183;-84
2021/03/14 01:59:06;;;;;;;0.50;0.50;;;2.20;99.90;;;;;;6086731;23;20260;-84
2021/03/14 02:01:33;;;;;;;0.50;0.50;;;2.10;99.90;;;;;;6087069;23;20613;-84
2021/03/14 02:03:59;;;;;;;0.50;0.50;;;2.30;99.90;;;;;;6086983;23;20183;-86
2021/03/14 02:06:26;;;;;;;0.45;0.45;;;2.30;99.90;;;;;;6086463;23;20187;-84
2021/03/14 02:08:52;;;;;;;0.50;0.50;;;2.30;99.90;;;;;;6087059;23;20190;-85
2021/03/14 02:11:24;;;;;;;0.50;0.50;;;2.40;99.90;;;;;;6087141;23;20186;-85
2021/03/14 02:13:53;;;;;;;0.50;0.50;;;2.40;99.90;;;;;;6086828;23;20175;-84
2021/03/14 02:16:22;;;;;;;0.50;0.50;;;2.40;99.90;;;;;;6086757;23;20183;-85
2021/03/14 02:18:53;;;;;;;0.50;0.50;;;2.10;99.90;;;;;;6086478;23;20195;-85
2021/03/14 02:21:20;;;;;;;0.50;0.50;;;2.40;99.90;;;;;;6086863;23;20626;-84
2021/03/14 02:23:51;;;;;;;0.50;0.50;;;2.40;99.90;;;;;;6086513;23;20520;-84
2021/03/14 02:26:21;;;;;;;0.40;0.40;;;2.60;99.90;;;;;;6087585;23;20171;-84
2021/03/14 02:28:48;;;;;;;0.50;0.50;;;2.40;99.90;;;;;;6087027;23;20179;-84
2021/03/14 02:31:18;;;;;;;0.50;0.50;;;2.70;99.90;;;;;;6087517;23;20190;-84
2021/03/14 02:33:45;;;;;;;0.50;0.50;;;2.80;99.90;;;;;;6087053;23;20183;-84
2021/03/14 02:36:14;;;;;;;0.50;0.50;;;2.90;99.90;;;;;;6087142;23;20317;-84
2021/03/14 02:38:42;;;;;;;0.50;0.50;;;2.90;99.90;;;;;;6086212;23;20202;-84
2021/03/14 02:41:10;;;;;;;0.45;0.45;;;3.00;99.90;;;;;;6084946;23;20214;-84
2021/03/14 02:43:37;;;;;;;0.50;0.50;;;3.00;99.90;;;;;;6086762;23;20183;-83
2021/03/14 02:46:05;;;;;;;0.50;0.50;;;3.00;99.90;;;;;;6085138;23;20713;-84
2021/03/14 02:48:32;;;;;;;0.50;0.50;;;3.10;99.90;;;;;;6088121;23;20163;-84
2021/03/14 02:51:00;;;;;;;0.50;0.50;;;3.20;99.90;;;;;;6088560;23;20535;-84
2021/03/14 02:53:27;;;;;;;0.50;0.50;;;3.20;99.90;;;;;;6087238;23;20182;-84
2021/03/14 02:55:55;;;;;;;0.50;0.50;;;3.30;99.90;;;;;;6088902;23;20261;-84
2021/03/14 02:58:23;;;;;;;0.50;0.50;;;3.30;99.90;;;;;;6088660;23;20261;-84
2021/03/14 03:00:51;;;;;;;0.50;0.50;;;3.40;99.90;;;;;;6088326;23;20225;-84
2021/03/14 03:03:21;;;;;;;0.40;0.40;;;3.40;99.90;;;;;;6088822;23;20206;-83
2021/03/14 03:05:47;;;;;;;0.50;0.50;;;3.40;99.90;;;;;;6088932;23;20186;-84
2021/03/14 03:08:14;;;;;;;0.40;0.40;;;3.40;99.90;;;;;;6088153;23;20757;-83
2021/03/14 03:10:44;;;;;;;0.50;0.50;;;3.40;99.90;;;;;;6089238;23;20184;-83
2021/03/14 03:13:11;;;;;;;0.40;0.40;;;3.10;99.90;;;;;;6086264;23;20237;-83
2021/03/14 03:15:38;;;;;;;0.50;0.50;;;2.90;99.90;;;;;;6088558;23;20180;-83
2021/03/14 03:18:06;;;;;;;0.50;0.50;;;2.80;99.90;;;;;;6088197;23;20222;-83
2021/03/14 03:20:35;;;;;;;0.50;0.50;;;2.90;99.90;;;;;;6088589;23;20187;-84
2021/03/14 03:23:01;;;;;;;0.50;0.50;;;2.80;99.90;;;;;;6087345;23;20523;-83
2021/03/14 03:25:28;;;;;;;0.50;0.50;;;2.70;99.90;;;;;;6088947;23;20183;-83
2021/03/14 03:27:54;;;;;;;0.50;0.50;;;2.80;99.90;;;;;;6088244;23;20175;-84
2021/03/14 03:30:24;;;;;;;0.50;0.50;;;2.70;99.90;;;;;;6088587;23;20190;-84
2021/03/14 03:32:50;;;;;;;0.50;0.50;;;2.80;99.90;;;;;;6088188;23;20184;-83
2021/03/14 03:35:19;;;;;;;0.50;0.50;;;2.80;99.90;;;;;;6088856;23;20186;-84
2021/03/14 03:37:48;;;;;;;0.50;0.50;;;2.70;99.90;;;;;;6087362;23;20206;-84
2021/03/14 03:40:17;;;;;;;0.45;0.45;;;2.70;99.90;;;;;;6088846;23;20277;-84
2021/03/14 03:42:48;;;;;;;0.47;0.47;;;3.10;99.90;;;;;;6088012;23;20757;-84
2021/03/14 03:45:15;;;;;;;0.50;0.50;;;2.80;99.90;;;;;;6089131;23;20217;-84
2021/03/14 03:47:42;;;;;;;0.50;0.50;;;2.90;99.90;;;;;;6088210;23;20640;-83
2021/03/14 03:50:10;;;;;;;0.50;0.50;;;3.00;99.90;;;;;;6089399;23;20187;-86
2021/03/14 03:52:36;;;;;;;0.45;0.45;;;3.00;99.90;;;;;;6088951;23;20234;-85
2021/03/14 03:55:08;;;;;;;0.50;0.50;;;3.10;99.90;;;;;;6088292;23;20190;-85
2021/03/14 03:57:35;;;;;;;0.50;0.50;;;3.10;99.90;;;;;;6088751;23;20167;-85
2021/03/14 04:00:03;;;;;;;0.50;0.50;;;3.00;99.90;;;;;;6088227;23;20197;-84
2021/03/14 04:02:30;;;;;;;0.50;0.50;;;3.30;99.90;;;;;;6086028;23;20183;-85
2021/03/14 04:04:57;;;;;;;0.50;0.50;;;3.10;99.90;;;;;;6088225;23;20186;-85
2021/03/14 04:07:23;;;;;;;0.50;0.50;;;3.20;99.90;;;;;;6087260;23;20516;-84
2021/03/14 04:09:49;;;;;;;0.40;0.40;;;2.70;99.90;;;;;;6088408;23;20536;-85
2021/03/14 04:12:17;;;;;;;0.50;0.50;;;3.20;99.90;;;;;;6086518;23;20179;-84
2021/03/14 04:14:45;;;;;;;0.50;0.50;;;3.10;99.90;;;;;;6088251;23;20190;-85
2021/03/14 04:17:11;;;;;;;0.50;0.50;;;3.10;99.90;;;;;;6088324;23;20184;-84
2021/03/14 04:19:37;;;;;;;0.50;0.50;;;2.90;99.90;;;;;;6088043;23;20194;-85
2021/03/14 04:22:05;;;;;;;0.45;0.45;;;3.30;99.90;;;;;;6087722;23;20184;-85
2021/03/14 04:24:32;;;;;;;0.50;0.50;;;4.00;99.90;;;;;;6088175;23;20195;-85
2021/03/14 04:27:02;;;;;;;0.50;0.50;;;3.10;99.90;;;;;;6088399;23;20179;-85
2021/03/14 04:29:30;;;;;;;0.50;0.50;;;2.90;99.90;;;;;;6087052;23;20261;-85
2021/03/14 04:31:57;;;;;;;0.50;0.50;;;3.00;99.90;;;;;;6088943;23;20183;-85
2021/03/14 04:34:24;;;;;;;0.50;0.50;;;3.30;99.90;;;;;;6089257;23;20179;-84
2021/03/14 04:36:51;;;;;;;0.50;0.50;;;3.10;99.90;;;;;;6087181;23;20408;-85
2021/03/14 04:39:18;;;;;;;0.50;0.50;;;3.10;99.90;;;;;;6084149;23;20199;-84
2021/03/14 04:41:46;;;;;;;0.50;0.50;;;3.10;99.90;;;;;;6088846;23;20271;-85
2021/03/14 04:44:13;;;;;;;0.50;0.50;;;2.80;99.90;;;;;;6088657;23;20274;-84
2021/03/14 04:46:44;;;;;;;0.50;0.50;;;3.20;99.90;;;;;;6088426;23;20423;-84
2021/03/14 04:49:10;;;;;;;0.50;0.50;;;3.00;99.90;;;;;;6088724;23;20535;-84
2021/03/14 04:51:40;;;;;;;0.40;0.40;;;3.20;99.90;;;;;;6088673;23;20203;-84
2021/03/14 04:54:09;;;;;;;0.50;0.50;;;3.20;99.90;;;;;;6088732;23;20167;-84
2021/03/14 04:56:38;;;;;;;0.50;0.50;;;3.20;99.90;;;;;;6088369;23;20632;-83
2021/03/14 04:59:05;;;;;;;0.50;0.50;;;3.20;99.90;;;;;;6088416;23;20199;-84
2021/03/14 05:01:35;;;;;;;0.50;0.50;;;3.20;99.90;;;;;;6088418;23;20644;-83
2021/03/14 05:04:03;;;;;;;0.50;0.50;;;3.20;99.90;;;;;;6088495;23;20179;-83
2021/03/14 05:06:30;;;;;;;0.50;0.50;;;3.10;99.90;;;;;;6089282;23;20183;-85
2021/03/14 05:08:59;;;;;;;0.50;0.50;;;3.00;99.90;;;;;;6088434;23;20643;-84
2021/03/14 05:11:25;;;;;;;0.50;0.50;;;3.20;99.90;;;;;;6088607;23;20210;-85
2021/03/14 05:13:52;;;;;;;0.50;0.50;;;3.20;99.90;;;;;;6088592;23;20186;-84
2021/03/14 05:16:19;;;;;;;0.40;0.40;;;3.20;99.90;;;;;;6089135;23;20190;-85
2021/03/14 05:18:47;;;;;;;0.50;0.50;;;3.10;99.90;;;;;;6089231;23;20206;-85
2021/03/14 05:21:15;;;;;;;0.50;0.50;;;3.30;99.90;;;;;;6088603;23;20561;-84
2021/03/14 05:23:41;;;;;;;0.50;0.50;;;3.40;99.90;;;;;;6088757;23;20183;-84
2021/03/14 05:26:11;;;;;;;0.50;0.50;;;3.40;99.90;;;;;;6088545;23;20179;-84
2021/03/14 05:28:39;;;;;;;0.50;0.50;;;3.40;99.90;;;;;;6088748;23;20167;-85
2021/03/14 05:31:31;;;;;;;0.50;0.50;;;3.40;99.90;;;;;;6088903;23;20179;-85
2021/03/14 05:33:59;;;;;;;0.50;0.50;;;3.50;99.90;;;;;;6088560;23;20168;-85
2021/03/14 05:36:27;;;;;;;0.50;0.50;;;3.50;99.90;;;;;;6088934;23;20190;-85
2021/03/14 05:38:54;;;;;;;0.50;0.50;;;3.40;99.90;;;;;;6088937;23;20199;-85
2021/03/14 05:41:21;;;;;;;0.47;0.47;;;3.40;99.90;;;;;;6088313;23;20207;-85
2021/03/14 05:43:47;;;;;;;0.50;0.50;;;3.50;99.90;;;;;;6088465;23;20190;-85
2021/03/14 05:46:14;;;;;;;0.50;0.50;;;3.50;99.90;;;;;;6088468;23;20183;-86
2021/03/14 05:48:42;;;;;;;0.50;0.50;;;3.30;99.90;;;;;;6088592;23;20180;-86
2021/03/14 05:51:08;;;;;;;0.50;0.50;;;3.50;99.90;;;;;;6088632;23;20206;-85
2021/03/14 05:53:39;;;;;;;0.40;0.40;;;3.50;99.90;;;;;;6088533;23;20710;-86
2021/03/14 05:56:07;;;;;;;0.50;0.50;;;3.60;99.90;;;;;;6088163;23;20562;-85
2021/03/14 05:58:35;;;;;;;0.50;0.50;;;3.50;99.90;;;;;;6088001;23;20206;-85
2021/03/14 06:01:02;;;;;;;0.50;0.50;;;3.50;99.90;;;;;;6088651;23;20187;-85
2021/03/14 06:03:29;;;;;;;0.50;0.50;;;3.30;99.90;;;;;;6088426;23;20264;-84
2021/03/14 06:05:56;;;;;;;0.50;0.50;;;3.50;99.90;;;;;;6088229;23;20183;-84
2021/03/14 06:08:22;;;;;;;0.40;0.40;;;3.60;99.90;;;;;;6088043;23;20175;-84
2021/03/14 06:10:49;;;;;;;0.50;0.50;;;3.10;99.90;;;;;;6088319;23;20183;-84
2021/03/14 06:13:16;;;;;;;0.50;0.50;;;3.60;99.90;;;;;;6088327;23;20624;-84
2021/03/14 06:15:42;;;;;;;0.50;0.50;;;3.60;99.90;;;;;;6088276;23;20187;-84
2021/03/14 06:18:09;;;;;;;0.50;0.50;;;3.60;99.90;;;;;;6088224;23;20203;-85
2021/03/14 06:20:41;;;;;;;0.47;0.47;;;4.30;99.90;;;;;;6087901;23;20636;-84
2021/03/14 06:23:08;;;;;;;0.40;0.40;;;3.60;99.90;;;;;;6088441;23;20164;-86
2021/03/14 06:25:34;;;;;;;0.50;0.50;;;4.20;99.90;;;;;;6088300;23;20187;-84
2021/03/14 06:28:02;;;;;;;0.50;0.50;;;3.70;99.90;;;;;;6088425;23;20186;-85
2021/03/14 06:30:32;;;;;;;0.50;0.50;;;3.70;99.90;;;;;;6088875;23;20190;-84
2021/03/14 06:33:07;;;;;;;0.50;0.50;;;3.70;99.90;;;;;;6088144;23;20643;-86
2021/03/14 06:35:45;;;;;;;0.40;0.40;;;3.50;99.90;;;;;;6088519;23;20162;-85
2021/03/14 06:38:19;;;;;;;0.50;0.50;;;3.80;99.90;;;;;;6087837;23;20241;-85
2021/03/14 06:40:46;;;;;;;0.50;0.50;;;3.90;99.90;;;;;;6087908;23;20185;-85
2021/03/14 06:43:14;;;;;;;0.50;0.50;;;3.90;99.90;;;;;;6088169;23;20503;-86
2021/03/14 06:45:41;;;;;;;0.50;0.50;;;3.80;99.90;;;;;;6087834;23;20237;-86
2021/03/14 06:48:08;;;;;;;0.47;0.47;;;3.90;99.90;;;;;;6087504;23;20183;-86
2021/03/14 06:50:38;;;;;;;0.50;0.50;;;3.90;99.90;;;;;;6087917;23;20210;-85
2021/03/14 06:53:09;;;;;;;0.50;0.50;;;3.90;99.90;;;;;;6088006;23;20687;-85
2021/03/14 06:55:36;;;;;;;0.50;0.50;;;3.90;99.90;;;;;;6088217;23;20600;-84
2021/03/14 06:58:24;;;;;;;0.43;0.43;;;3.90;99.90;;;;;;6088220;23;20252;-85
2021/03/14 07:01:11;;;;;;;0.50;0.50;;;3.90;99.90;;;;;;6088119;23;20168;-86
2021/03/14 07:03:39;;;;;;;0.50;0.50;;;4.80;99.90;;;;;;6088042;23;20474;-85
2021/03/14 07:06:19;;;;;;;0.50;0.50;;;3.80;99.90;;;;;;6087831;23;20571;-85
2021/03/14 07:08:47;;;;;;;0.50;0.50;;;4.00;99.90;;;;;;6087849;23;20163;-85
2021/03/14 07:11:35;;;;;;;0.50;0.50;;;3.90;99.90;;;;;;6087740;23;20716;-86
2021/03/14 07:14:09;;;;;;;0.40;0.40;;;3.90;99.90;;;;;;6088582;23;20646;-85
2021/03/14 07:16:48;;;;;;;0.50;0.50;;;5.50;99.90;;;;;;6088331;23;20163;-85
2021/03/14 07:19:20;;;;;;;0.50;0.50;;;3.80;99.90;;;;;;6088274;23;20199;-86
2021/03/14 07:21:57;;;;;;;0.40;0.40;;;3.90;99.90;;;;;;6088069;23;20167;-85
2021/03/14 07:24:37;;;;;;;0.50;0.50;;;3.90;99.90;;;;;;6088054;23;20221;-85
2021/03/14 07:27:10;;;;;;;0.40;0.40;;;5.30;99.90;;;;;;6087631;23;20277;-84
2021/03/14 07:29:39;;;;;;;0.50;0.50;;;4.00;99.90;;;;;;6087999;23;20225;-86
2021/03/14 07:32:09;;;;;;;0.40;0.40;;;3.80;99.90;;;;;;6088115;23;20257;-86
2021/03/14 07:34:43;;;;;;;0.50;0.50;;;3.60;99.90;;;;;;6088059;23;20179;-86
2021/03/14 07:37:26;;;;;;;0.40;0.40;;;6.80;99.90;;;;;;6089188;23;20164;-88
2021/03/14 07:39:57;;;;;;;0.50;0.50;;;6.30;99.90;;;;;;6089087;23;20451;-88
2021/03/14 07:42:31;;;;;;;0.50;0.50;;;3.70;99.90;;;;;;6088698;23;20210;-86
2021/03/14 07:45:01;;;;;;;0.50;0.50;;;3.00;99.90;;;;;;6088961;23;20217;-84
2021/03/14 07:47:36;;;;;;;0.50;0.50;;;2.80;99.90;;;;;;6089089;23;20270;-84
2021/03/14 07:50:08;;;;;;;0.50;0.50;;;4.00;99.90;;;;;;6088934;23;20175;-85
2021/03/14 07:52:39;;;;;;;0.50;0.50;;;4.10;99.90;;;;;;6088963;23;20175;-86
2021/03/14 07:55:09;;;;;;;0.50;0.50;;;4.20;99.90;;;;;;6089482;23;20168;-86
2021/03/14 07:57:43;;;;;;;0.50;0.50;;;4.10;99.90;;;;;;6088902;23;20171;-86
2021/03/14 08:00:28;;;;;;;0.50;0.50;;;4.80;99.90;;;;;;6089017;23;20182;-85
2021/03/14 08:02:56;;;;;;;0.50;0.50;;;4.30;99.90;;;;;;6089222;23;20170;-86
2021/03/14 08:05:45;;;;;;;0.50;0.50;;;3.60;99.90;;;;;;6089471;23;20195;-85
2021/03/14 08:08:13;;;;;;;0.50;0.50;;;4.10;99.90;;;;;;6089351;23;20182;-85
2021/03/14 08:10:57;;;;;;;0.50;0.50;;;4.20;99.90;;;;;;6089247;23;20701;-87
2021/03/14 08:13:42;;;;;;;0.50;0.50;;;4.20;99.90;;;;;;6088701;23;20233;-83
2021/03/14 08:16:22;;;;;;;0.47;0.47;;;2.70;99.90;;;;;;6085185;23;20221;-85
2021/03/14 08:18:51;;;;;;;0.47;0.47;;;6.80;99.90;;;;;;6088424;23;20217;-86
2021/03/14 08:21:42;;;;;;;0.40;0.40;;;5.90;99.90;;;;;;6089625;23;20195;-86
2021/03/14 08:24:12;;;;;;;0.50;0.50;;;5.90;99.90;;;;;;6076597;23;20321;-86
2021/03/14 08:26:40;;;;;;;0.50;0.50;;;4.40;99.90;;;;;;6090572;23;20210;-87
2021/03/14 08:29:10;;;;;;;0.50;0.50;;;4.10;99.90;;;;;;6096158;22;20183;-90
2021/03/14 08:31:41;;;;;;;0.50;0.50;;;4.30;99.90;;;;;;6101109;23;20183;-87
2021/03/14 08:37:48;;;;;;;0.43;0.43;;;4.80;99.90;;;;;;6113756;23;20203;-87
2021/03/14 08:40:32;;;;;;;0.50;0.50;;;6.90;99.90;;;;;;6109927;23;20147;-87
2021/03/14 08:43:06;;;;;;;0.45;0.45;;;6.90;99.90;;;;;;6109656;23;20207;-85
2021/03/14 08:45:53;;;;;;;0.50;0.50;;;4.50;99.90;;;;;;6112554;23;20171;-85
2021/03/14 08:48:42;;;;;;;0.50;0.50;;;4.20;99.90;;;;;;6114224;23;20168;-86
2021/03/14 08:51:12;;;;;;;0.50;0.50;;;3.80;99.90;;;;;;6102228;23;20267;-83
2021/03/14 08:53:39;;;;;;;0.50;0.50;;;4.80;99.90;;;;;;6092219;23;20168;-83
2021/03/14 08:56:11;;;;;;;0.50;0.50;;;5.80;99.90;;;;;;6087931;23;20194;-83
2021/03/14 08:58:39;;;;;;;0.40;0.40;;;4.50;99.90;;;;;;6088103;23;20195;-83
2021/03/14 09:01:11;;;;;;;0.50;0.50;;;4.50;99.90;;;;;;6087654;23;20180;-84
2021/03/14 09:03:41;;;;;;;0.50;0.50;;;4.60;99.90;;;;;;6088810;23;20701;-83
2021/03/14 09:06:27;;;;;;;0.50;0.50;;;4.20;99.90;;;;;;6087758;23;20618;-83
2021/03/14 09:09:01;;;;;;;0.50;0.50;;;6.40;99.90;;;;;;6087938;23;20179;-82
2021/03/14 09:11:44;;;;;;;0.50;0.50;;;4.80;99.90;;;;;;6088027;23;20168;-82
2021/03/14 09:14:33;;;;;;;0.50;0.50;;;5.00;99.90;;;;;;6086623;23;20193;-83
2021/03/14 09:17:01;;;;;;;0.50;0.50;;;5.10;99.90;;;;;;6087207;23;20497;-83
2021/03/14 09:19:31;;;;;;;0.40;0.40;;;5.10;99.90;;;;;;6087885;23;20203;-82
2021/03/14 09:21:59;;;;;;;0.50;0.50;;;4.60;99.90;;;;;;6088376;23;20183;-83
2021/03/14 09:24:35;;;;;;;0.50;0.50;;;5.30;99.90;;;;;;6087443;23;20182;-83
2021/03/14 09:27:04;;;;;;;0.50;0.50;;;5.20;99.90;;;;;;6086881;23;20634;-83
2021/03/14 09:29:49;;;;;;;0.50;0.50;;;5.30;99.90;;;;;;6087690;23;20174;-84
2021/03/14 09:32:34;;;;;;;0.50;0.50;;;5.20;99.90;;;;;;6087355;23;20174;-84
2021/03/14 09:35:19;;;;;;;0.50;0.50;;;5.40;99.90;;;;;;6088038;23;20183;-83
2021/03/14 09:37:47;;;;;;;0.50;0.50;;;5.40;99.90;;;;;;6088270;23;20167;-83
2021/03/14 09:40:35;;;;;;;0.50;0.50;;;5.50;99.90;;;;;;6088038;23;20244;-84
2021/03/14 09:43:14;;;;;;;0.50;0.50;;;5.70;99.90;;;;;;6241643;23;20168;-83
2021/03/14 09:45:42;;;;;;;0.50;0.50;;;5.80;99.90;;;;;;6240723;23;20160;-82
2021/03/14 09:48:11;;;;;;;0.50;0.50;;;5.70;99.90;;;;;;6241251;23;20180;-83
2021/03/14 09:50:47;;;;;;;0.50;0.50;;;5.80;99.90;;;;;;6242115;23;20267;-84
2021/03/14 09:53:15;;;;;;;0.50;0.50;;;5.20;99.90;;;;;;6241628;23;20163;-84
2021/03/14 09:55:43;;;;;;;0.60;0.60;;;6.10;99.90;;;;;;6238301;23;20254;-85
2021/03/14 09:58:10;;;;;;;0.50;0.50;;;5.10;99.90;;;;;;6241478;23;20171;-85
2021/03/14 10:00:37;;;;;;;0.50;0.50;;;8.70;99.90;;;;;;6241739;23;20199;-86
2021/03/14 10:03:07;;;;;;;0.50;0.50;;;7.30;99.90;;;;;;6242292;23;20186;-85
2021/03/14 10:05:45;;;;;;;0.57;0.57;;;6.50;99.90;;;;;;6241132;23;20339;-86
2021/03/14 10:08:18;;;;;;;0.50;0.50;;;6.50;99.90;;;;;;6241900;23;20563;-89
2021/03/14 10:10:45;;;;;;;0.50;0.50;;;7.50;99.90;;;;;;6240903;23;20600;-88
2021/03/14 10:13:12;;;;;;;0.50;0.50;;;4.50;99.90;;;;;;6244153;23;20171;-87
2021/03/14 10:15:44;;;;;;;0.60;0.60;;;7.60;99.90;;;;;;6238630;23;20214;-85
2021/03/14 10:18:16;;;;;;;0.50;0.50;;;6.30;99.90;;;;;;6245216;23;20255;-86
2021/03/14 10:20:44;;;;;;;0.50;0.50;;;6.60;99.90;;;;;;6235773;23;20258;-85
2021/03/14 10:23:10;;;;;;;0.60;0.60;;;6.40;99.90;;;;;;6242406;23;20487;-84
2021/03/14 10:25:41;;;;;;;0.50;0.50;;;6.70;99.90;;;;;;6244177;23;20624;-85
2021/03/14 10:28:13;;;;;;;0.50;0.50;;;6.50;99.90;;;;;;6239995;23;20171;-85
2021/03/14 10:30:43;;;;;;;0.60;0.60;;;6.90;99.90;;;;;;6245447;23;20616;-85
2021/03/14 10:33:32;;;;;;;0.50;0.50;;;5.70;99.90;;;;;;6248628;23;20221;-85
2021/03/14 10:36:05;;;;;;;0.50;0.50;;;5.50;99.90;;;;;;6245095;23;20164;-86
2021/03/14 10:38:44;;;;;;;0.50;0.50;;;6.90;99.90;;;;;;6262032;23;20176;-86
2021/03/14 10:41:23;;;;;;;0.50;0.50;;;7.00;99.90;;;;;;6228367;22;20186;-86
2021/03/14 10:43:52;;;;;;;0.60;0.60;;;9.20;99.90;;;;;;6096619;23;20194;-82
2021/03/14 10:46:34;;;;;;;0.52;0.52;;;7.90;99.90;;;;;;6087637;23;20195;-85
2021/03/14 10:49:02;;;;;;;0.50;0.50;;;6.50;99.90;;;;;;6087405;23;20163;-80
2021/03/14 10:51:33;;;;;;;0.50;0.50;;;6.40;99.90;;;;;;6090261;23;20203;-86
2021/03/14 10:54:04;;;;;;;0.55;0.55;;;6.10;99.90;;;;;;6088570;23;20168;-86
2021/03/14 10:56:35;;;;;;;0.60;0.60;;;5.20;99.90;;;;;;6089631;23;20190;-86
2021/03/14 10:59:21;;;;;;;0.55;0.55;;;6.80;99.90;;;;;;6088985;23;20258;-87
2021/03/14 11:01:52;;;;;;;0.60;0.60;;;6.60;99.90;;;;;;6093639;23;20164;-86
2021/03/14 11:04:26;;;;;;;0.60;0.60;;;6.90;99.90;;;;;;6092563;23;20675;-87
2021/03/14 11:06:54;;;;;;;0.60;0.60;;;7.20;99.90;;;;;;6089644;23;20160;-84
2021/03/14 11:09:26;;;;;;;0.60;0.60;;;7.40;99.90;;;;;;6092734;23;20524;-85
2021/03/14 11:11:56;;;;;;;0.60;0.60;;;7.00;99.90;;;;;;6090728;23;20610;-85
2021/03/14 11:14:44;;;;;;;0.50;0.50;;;5.70;99.90;;;;;;6094097;23;20577;-85
2021/03/14 11:17:13;;;;;;;0.60;0.60;;;7.90;99.90;;;;;;6090901;23;20258;-84
2021/03/14 11:19:43;;;;;;;0.50;0.50;;;8.20;99.90;;;;;;6089839;23;20210;-85
2021/03/14 11:22:13;;;;;;;0.50;0.50;;;9.80;99.90;;;;;;6094702;23;20255;-86
2021/03/14 11:24:42;;;;;;;0.60;0.60;;;7.70;99.90;;;;;;6089136;23;20542;-84
2021/03/14 11:27:12;;;;;;;0.60;0.60;;;8.00;99.90;;;;;;6094985;23;20237;-85
2021/03/14 11:29:42;;;;;;;0.60;0.60;;;7.90;99.90;;;;;;6093971;23;20311;-86
2021/03/14 11:32:13;;;;;;;0.60;0.60;;;8.70;99.90;;;;;;6091511;23;20246;-92
2021/03/14 11:34:41;;;;;;;0.50;0.50;;;9.60;99.90;;;;;;6091603;23;20183;-90
2021/03/14 11:37:08;;;;;;;0.50;0.50;;;9.30;99.90;;;;;;6091593;23;20179;-88
2021/03/14 11:39:35;;;;;;;0.60;0.60;;;6.30;99.90;;;;;;6088322;23;20198;-88
2021/03/14 11:42:02;;;;;;;0.50;0.50;;;7.30;99.90;;;;;;6088667;23;20226;-90
2021/03/14 11:44:29;;;;;;;0.60;0.60;;;8.50;99.90;;;;;;6088370;23;20480;-87
2021/03/14 11:46:55;;;;;;;0.60;0.60;;;7.40;99.90;;;;;;6087220;23;20575;-86
2021/03/14 11:49:22;;;;;;;0.52;0.52;;;7.40;99.90;;;;;;6086345;23;20210;-84
2021/03/14 11:51:48;;;;;;;0.60;0.60;;;6.80;99.90;;;;;;6084407;23;20234;-84
2021/03/14 11:54:17;;;;;;;0.60;0.60;;;7.30;99.90;;;;;;6085186;23;20242;-84
2021/03/14 11:56:44;;;;;;;0.50;0.50;;;7.30;99.90;;;;;;6088478;23;20183;-84
2021/03/14 11:59:11;;;;;;;0.60;0.60;;;6.90;99.90;;;;;;6088224;23;20195;-85
2021/03/14 12:01:37;;;;;;;0.60;0.60;;;8.60;99.90;;;;;;6088031;23;20555;-84
2021/03/14 12:04:04;;;;;;;0.60;0.60;;;7.20;99.90;;;;;;6088896;23;20258;-85
2021/03/14 12:06:30;;;;;;;0.50;0.50;;;7.30;99.90;;;;;;6088327;23;20190;-84
2021/03/14 12:08:56;;;;;;;0.50;0.50;;;8.00;99.90;;;;;;6088615;23;20487;-86
2021/03/14 12:11:23;;;;;;;0.55;0.55;;;7.80;99.90;;;;;;6087995;23;20183;-86
2021/03/14 12:13:50;;;;;;;0.50;0.50;;;7.30;99.90;;;;;;6088895;23;20179;-85
2021/03/14 12:16:16;;;;;;;0.60;0.60;;;7.40;99.90;;;;;;6087600;23;20569;-85
2021/03/14 12:18:42;;;;;;;0.60;0.60;;;7.20;99.90;;;;;;6088311;23;20211;-86
2021/03/14 12:21:09;;;;;;;0.52;0.52;;;7.10;99.90;;;;;;6087631;23;20548;-85
2021/03/14 12:23:36;;;;;;;0.60;0.60;;;6.20;99.90;;;;;;6088998;23;20186;-85
2021/03/14 12:26:03;;;;;;;0.60;0.60;;;7.20;99.90;;;;;;6088597;23;20183;-86
2021/03/14 12:28:30;;;;;;;0.60;0.60;;;8.50;99.90;;;;;;6088420;23;20490;-85
2021/03/14 12:30:58;;;;;;;0.60;0.60;;;8.60;99.90;;;;;;6087054;23;20660;-85
2021/03/14 12:33:24;;;;;;;0.60;0.60;;;8.60;99.90;;;;;;6088220;23;20190;-86
2021/03/14 12:35:51;;;;;;;0.60;0.60;;;6.40;99.90;;;;;;6088723;23;20485;-85
2021/03/14 12:38:17;;;;;;;0.52;0.52;;;5.60;99.90;;;;;;6087891;23;20487;-85
2021/03/14 12:40:46;;;;;;;0.60;0.60;;;6.50;99.90;;;;;;6088357;23;20274;-86
2021/03/14 12:43:12;;;;;;;0.52;0.52;;;6.20;99.90;;;;;;6088015;23;20214;-85
2021/03/14 12:45:39;;;;;;;0.60;0.60;;;7.70;99.90;;;;;;6087616;23;20488;-85
2021/03/14 12:48:07;;;;;;;0.57;0.57;;;5.80;99.90;;;;;;6088863;23;20183;-86
2021/03/14 12:50:33;;;;;;;0.60;0.60;;;5.70;99.90;;;;;;6088216;23;20249;-86
2021/03/14 12:53:00;;;;;;;0.50;0.50;;;4.50;99.90;;;;;;6088042;23;20183;-85
2021/03/14 12:55:27;;;;;;;0.60;0.60;;;8.10;99.90;;;;;;6088285;23;20179;-87
2021/03/14 12:57:53;;;;;;;0.60;0.60;;;5.90;99.90;;;;;;6088417;23;20191;-85
2021/03/14 13:00:20;;;;;;;0.55;0.55;;;7.00;99.90;;;;;;6087897;23;20213;-86
2021/03/14 13:02:47;;;;;;;0.60;0.60;;;7.10;99.90;;;;;;6088062;23;20222;-86
2021/03/14 13:05:15;;;;;;;0.57;0.57;;;6.40;99.90;;;;;;6087846;23;20286;-86
2021/03/14 13:07:41;;;;;;;0.60;0.60;;;6.90;99.90;;;;;;6088243;23;20190;-86
2021/03/14 13:10:09;;;;;;;0.60;0.60;;;8.30;99.90;;;;;;6088839;23;20175;-87
2021/03/14 13:12:37;;;;;;;0.60;0.60;;;6.60;99.90;;;;;;6088285;23;20213;-86
2021/03/14 13:15:05;;;;;;;0.60;0.60;;;6.40;99.90;;;;;;6088258;23;20178;-86